sensor_id;sensor_type;location;lat;lon;timestamp;temperature;humidity
27413;DHT22;14871;52.702;5.230;2024-03-25T00:02:17;8.80;99.90
27413;DHT22;14871;52.702;5.230;2024-03-25T00:04:43;8.70;99.90
27413;DHT22;14871;52.702;5.230;2024-03-25T00:07:09;8.70;99.90
27413;DHT22;14871;52.702;5.230;2024-03-25T00:09:34;8.70;99.90
27413;DHT22;14871;52.702;5.230;2024-03-25T00:12:00;8.70;99.90
27413;DHT22;14871;52.702;5.230;2024-03-25T00:14:26;8.90;99.90
27413;DHT22;14871;52.702;5.230;2024-03-25T00:16:52;9.00;99.90
27413;DHT22;14871;52.702;5.230;2024-03-25T00:19:18;8.90;99.90
27413;DHT22;14871;52.702;5.230;2024-03-25T00:21:43;8.80;99.90
27413;DHT22;14871;52.702;5.230;2024-03-25T00:24:09;8.90;99.90
27413;DHT22;14871;52.702;5.230;2024-03-25T00:26:35;8.90;99.90
27413;DHT22;14871;52.702;5.230;2024-03-25T00:29:01;8.90;99.90
27413;DHT22;14871;52.702;5.230;2024-03-25T00:31:26;9.00;99.90
27413;DHT22;14871;52.702;5.230;2024-03-25T00:33:52;9.00;99.90
27413;DHT22;14871;52.702;5.230;2024-03-25T00:36:17;9.00;99.90
27413;DHT22;14871;52.702;5.230;2024-03-25T00:38:43;9.10;99.90
27413;DHT22;14871;52.702;5.230;2024-03-25T00:41:09;9.10;99.90
27413;DHT22;14871;52.702;5.230;2024-03-25T00:43:35;9.10;99.90
27413;DHT22;14871;52.702;5.230;2024-03-25T00:46:00;9.10;99.90
27413;DHT22;14871;52.702;5.230;2024-03-25T00:48:26;9.10;99.90
27413;DHT22;14871;52.702;5.230;2024-03-25T00:50:52;9.10;99.90
27413;DHT22;14871;52.702;5.230;2024-03-25T00:53:17;9.00;99.90
27413;DHT22;14871;52.702;5.230;2024-03-25T00:55:44;9.00;99.90
27413;DHT22;14871;52.702;5.230;2024-03-25T00:58:09;8.90;99.90
27413;DHT22;14871;52.702;5.230;2024-03-25T01:00:35;8.90;99.90
27413;DHT22;14871;52.702;5.230;2024-03-25T01:03:01;8.80;99.90
27413;DHT22;14871;52.702;5.230;2024-03-25T01:05:26;8.70;99.90
27413;DHT22;14871;52.702;5.230;2024-03-25T01:07:53;8.70;99.90
27413;DHT22;14871;52.702;5.230;2024-03-25T01:10:18;8.70;99.90
27413;DHT22;14871;52.702;5.230;2024-03-25T01:12:44;8.70;99.90
27413;DHT22;14871;52.702;5.230;2024-03-25T01:15:09;8.80;99.90
27413;DHT22;14871;52.702;5.230;2024-03-25T01:17:36;8.70;99.90
27413;DHT22;14871;52.702;5.230;2024-03-25T01:20:02;8.70;99.90
27413;DHT22;14871;52.702;5.230;2024-03-25T01:22:30;8.60;99.90
27413;DHT22;14871;52.702;5.230;2024-03-25T01:24:56;8.60;99.90
27413;DHT22;14871;52.702;5.230;2024-03-25T01:27:21;8.50;99.90
27413;DHT22;14871;52.702;5.230;2024-03-25T01:29:47;8.60;99.90
27413;DHT22;14871;52.702;5.230;2024-03-25T01:32:13;8.60;99.90
27413;DHT22;14871;52.702;5.230;2024-03-25T01:34:38;8.50;99.90
27413;DHT22;14871;52.702;5.230;2024-03-25T01:37:04;8.50;99.90
27413;DHT22;14871;52.702;5.230;2024-03-25T01:39:29;8.50;99.90
27413;DHT22;14871;52.702;5.230;2024-03-25T01:41:55;8.50;99.90
27413;DHT22;14871;52.702;5.230;2024-03-25T01:44:20;8.60;99.90
27413;DHT22;14871;52.702;5.230;2024-03-25T01:46:46;8.60;99.90
27413;DHT22;14871;52.702;5.230;2024-03-25T01:49:12;8.50;99.90
27413;DHT22;14871;52.702;5.230;2024-03-25T01:51:39;8.50;99.90
27413;DHT22;14871;52.702;5.230;2024-03-25T01:54:06;8.50;99.90
27413;DHT22;14871;52.702;5.230;2024-03-25T01:56:33;8.40;99.90
27413;DHT22;14871;52.702;5.230;2024-03-25T01:59:01;8.40;99.90
27413;DHT22;14871;52.702;5.230;2024-03-25T02:01:27;8.30;99.90
27413;DHT22;14871;52.702;5.230;2024-03-25T02:03:55;8.30;99.90
27413;DHT22;14871;52.702;5.230;2024-03-25T02:06:22;8.30;99.90
27413;DHT22;14871;52.702;5.230;2024-03-25T02:08:49;8.40;99.90
27413;DHT22;14871;52.702;5.230;2024-03-25T02:11:16;8.50;99.90
27413;DHT22;14871;52.702;5.230;2024-03-25T02:13:42;8.50;99.90
27413;DHT22;14871;52.702;5.230;2024-03-25T02:16:08;8.50;99.90
27413;DHT22;14871;52.702;5.230;2024-03-25T02:18:33;8.60;99.90
27413;DHT22;14871;52.702;5.230;2024-03-25T02:21:00;8.50;99.90
27413;DHT22;14871;52.702;5.230;2024-03-25T02:23:26;8.40;99.90
27413;DHT22;14871;52.702;5.230;2024-03-25T02:25:55;8.30;99.90
27413;DHT22;14871;52.702;5.230;2024-03-25T02:28:21;8.40;99.90
27413;DHT22;14871;52.702;5.230;2024-03-25T02:30:46;8.50;99.90
27413;DHT22;14871;52.702;5.230;2024-03-25T02:33:12;8.50;99.90
27413;DHT22;14871;52.702;5.230;2024-03-25T02:35:40;8.40;99.90
27413;DHT22;14871;52.702;5.230;2024-03-25T02:38:06;8.40;99.90
27413;DHT22;14871;52.702;5.230;2024-03-25T02:40:32;8.40;99.90
27413;DHT22;14871;52.702;5.230;2024-03-25T02:42:59;8.50;99.90
27413;DHT22;14871;52.702;5.230;2024-03-25T02:45:25;8.50;99.90
27413;DHT22;14871;52.702;5.230;2024-03-25T02:47:50;8.40;99.90
27413;DHT22;14871;52.702;5.230;2024-03-25T02:50:16;8.40;99.90
27413;DHT22;14871;52.702;5.230;2024-03-25T02:52:42;8.50;99.90
27413;DHT22;14871;52.702;5.230;2024-03-25T02:55:07;8.40;99.90
27413;DHT22;14871;52.702;5.230;2024-03-25T02:57:33;8.30;99.90
27413;DHT22;14871;52.702;5.230;2024-03-25T02:59:59;8.40;99.90
27413;DHT22;14871;52.702;5.230;2024-03-25T03:02:24;8.40;99.90
27413;DHT22;14871;52.702;5.230;2024-03-25T03:04:50;8.40;99.90
27413;DHT22;14871;52.702;5.230;2024-03-25T03:07:15;8.30;99.90
27413;DHT22;14871;52.702;5.230;2024-03-25T03:09:42;8.30;99.90
27413;DHT22;14871;52.702;5.230;2024-03-25T03:12:07;8.30;99.90
27413;DHT22;14871;52.702;5.230;2024-03-25T03:14:33;8.40;99.90
27413;DHT22;14871;52.702;5.230;2024-03-25T03:16:59;8.40;99.90
27413;DHT22;14871;52.702;5.230;2024-03-25T03:19:27;8.30;99.90
27413;DHT22;14871;52.702;5.230;2024-03-25T03:21:54;8.30;99.90
27413;DHT22;14871;52.702;5.230;2024-03-25T03:24:20;8.40;99.90
27413;DHT22;14871;52.702;5.230;2024-03-25T03:26:45;8.40;99.90
27413;DHT22;14871;52.702;5.230;2024-03-25T03:29:11;8.30;99.90
27413;DHT22;14871;52.702;5.230;2024-03-25T03:31:37;8.20;99.90
27413;DHT22;14871;52.702;5.230;2024-03-25T03:34:03;8.30;99.90
27413;DHT22;14871;52.702;5.230;2024-03-25T03:36:28;8.20;99.90
27413;DHT22;14871;52.702;5.230;2024-03-25T03:38:54;8.20;99.90
27413;DHT22;14871;52.702;5.230;2024-03-25T03:41:20;8.20;99.90
27413;DHT22;14871;52.702;5.230;2024-03-25T03:43:46;8.10;99.90
27413;DHT22;14871;52.702;5.230;2024-03-25T03:46:12;8.10;99.90
27413;DHT22;14871;52.702;5.230;2024-03-25T03:48:38;8.10;99.90
27413;DHT22;14871;52.702;5.230;2024-03-25T03:51:05;8.10;99.90
27413;DHT22;14871;52.702;5.230;2024-03-25T03:53:32;8.10;99.90
27413;DHT22;14871;52.702;5.230;2024-03-25T03:56:02;8.10;99.90
27413;DHT22;14871;52.702;5.230;2024-03-25T03:58:29;8.00;99.90
27413;DHT22;14871;52.702;5.230;2024-03-25T04:00:55;8.00;99.90
27413;DHT22;14871;52.702;5.230;2024-03-25T04:03:21;8.00;99.90
27413;DHT22;14871;52.702;5.230;2024-03-25T04:05:47;8.00;99.90
27413;DHT22;14871;52.702;5.230;2024-03-25T04:08:12;8.00;99.90
27413;DHT22;14871;52.702;5.230;2024-03-25T04:10:38;8.00;99.90
27413;DHT22;14871;52.702;5.230;2024-03-25T04:13:05;8.00;99.90
27413;DHT22;14871;52.702;5.230;2024-03-25T04:15:35;8.00;99.90
27413;DHT22;14871;52.702;5.230;2024-03-25T04:18:01;8.10;99.90
27413;DHT22;14871;52.702;5.230;2024-03-25T04:20:27;8.10;99.90
27413;DHT22;14871;52.702;5.230;2024-03-25T04:22:53;8.10;99.90
27413;DHT22;14871;52.702;5.230;2024-03-25T04:25:19;8.10;99.90
27413;DHT22;14871;52.702;5.230;2024-03-25T04:27:45;8.00;99.90
27413;DHT22;14871;52.702;5.230;2024-03-25T04:30:11;8.00;99.90
27413;DHT22;14871;52.702;5.230;2024-03-25T04:32:38;8.10;99.90
27413;DHT22;14871;52.702;5.230;2024-03-25T04:35:04;8.10;99.90
27413;DHT22;14871;52.702;5.230;2024-03-25T04:37:32;8.10;99.90
27413;DHT22;14871;52.702;5.230;2024-03-25T04:39:58;8.10;99.90
27413;DHT22;14871;52.702;5.230;2024-03-25T04:42:24;8.10;99.90
27413;DHT22;14871;52.702;5.230;2024-03-25T04:44:49;8.10;99.90
27413;DHT22;14871;52.702;5.230;2024-03-25T04:47:16;8.10;99.90
27413;DHT22;14871;52.702;5.230;2024-03-25T04:49:42;8.10;99.90
27413;DHT22;14871;52.702;5.230;2024-03-25T04:52:07;8.10;99.90
27413;DHT22;14871;52.702;5.230;2024-03-25T04:54:33;8.10;99.90
27413;DHT22;14871;52.702;5.230;2024-03-25T04:56:59;8.10;99.90
27413;DHT22;14871;52.702;5.230;2024-03-25T04:59:24;8.10;99.90
27413;DHT22;14871;52.702;5.230;2024-03-25T05:01:50;8.00;99.90
27413;DHT22;14871;52.702;5.230;2024-03-25T05:04:15;8.00;99.90
27413;DHT22;14871;52.702;5.230;2024-03-25T05:06:41;8.00;99.90
27413;DHT22;14871;52.702;5.230;2024-03-25T05:09:07;8.00;99.90
27413;DHT22;14871;52.702;5.230;2024-03-25T05:11:33;8.00;99.90
27413;DHT22;14871;52.702;5.230;2024-03-25T05:13:59;8.00;99.90
27413;DHT22;14871;52.702;5.230;2024-03-25T05:16:24;8.00;99.90
27413;DHT22;14871;52.702;5.230;2024-03-25T05:18:50;7.90;99.90
27413;DHT22;14871;52.702;5.230;2024-03-25T05:21:16;7.90;99.90
27413;DHT22;14871;52.702;5.230;2024-03-25T05:23:42;7.90;99.90
27413;DHT22;14871;52.702;5.230;2024-03-25T05:26:08;7.90;99.90
27413;DHT22;14871;52.702;5.230;2024-03-25T05:28:33;7.90;99.90
27413;DHT22;14871;52.702;5.230;2024-03-25T05:31:25;7.90;99.90
27413;DHT22;14871;52.702;5.230;2024-03-25T05:33:51;7.90;99.90
27413;DHT22;14871;52.702;5.230;2024-03-25T05:36:17;7.90;99.90
27413;DHT22;14871;52.702;5.230;2024-03-25T05:38:43;7.90;99.90
27413;DHT22;14871;52.702;5.230;2024-03-25T05:41:09;7.90;99.90
27413;DHT22;14871;52.702;5.230;2024-03-25T05:43:35;7.80;99.90
27413;DHT22;14871;52.702;5.230;2024-03-25T05:46:01;7.80;99.90
27413;DHT22;14871;52.702;5.230;2024-03-25T05:48:27;7.90;99.90
27413;DHT22;14871;52.702;5.230;2024-03-25T05:53:29;7.90;99.90
27413;DHT22;14871;52.702;5.230;2024-03-25T05:55:55;7.90;99.90
27413;DHT22;14871;52.702;5.230;2024-03-25T05:58:21;7.80;99.90
27413;DHT22;14871;52.702;5.230;2024-03-25T06:00:50;7.80;99.90
27413;DHT22;14871;52.702;5.230;2024-03-25T06:03:16;7.80;99.90
27413;DHT22;14871;52.702;5.230;2024-03-25T06:05:43;7.80;99.90
27413;DHT22;14871;52.702;5.230;2024-03-25T06:08:09;7.90;99.90
27413;DHT22;14871;52.702;5.230;2024-03-25T06:10:43;7.90;99.90
27413;DHT22;14871;52.702;5.230;2024-03-25T06:13:09;7.80;99.90
27413;DHT22;14871;52.702;5.230;2024-03-25T06:15:35;7.90;99.90
27413;DHT22;14871;52.702;5.230;2024-03-25T06:18:00;8.00;99.90
27413;DHT22;14871;52.702;5.230;2024-03-25T06:20:26;7.90;99.90
27413;DHT22;14871;52.702;5.230;2024-03-25T06:22:52;8.00;99.90
27413;DHT22;14871;52.702;5.230;2024-03-25T06:25:17;8.10;99.90
27413;DHT22;14871;52.702;5.230;2024-03-25T06:27:43;8.10;99.90
27413;DHT22;14871;52.702;5.230;2024-03-25T06:30:10;8.20;99.90
27413;DHT22;14871;52.702;5.230;2024-03-25T06:32:54;8.30;99.90
27413;DHT22;14871;52.702;5.230;2024-03-25T06:35:38;8.30;99.90
27413;DHT22;14871;52.702;5.230;2024-03-25T06:38:04;8.30;99.90
27413;DHT22;14871;52.702;5.230;2024-03-25T06:40:30;8.50;99.90
27413;DHT22;14871;52.702;5.230;2024-03-25T06:42:56;8.60;99.90
27413;DHT22;14871;52.702;5.230;2024-03-25T06:45:22;8.70;99.90
27413;DHT22;14871;52.702;5.230;2024-03-25T06:47:48;8.70;99.90
27413;DHT22;14871;52.702;5.230;2024-03-25T06:50:14;8.80;99.90
27413;DHT22;14871;52.702;5.230;2024-03-25T06:52:40;8.80;99.90
27413;DHT22;14871;52.702;5.230;2024-03-25T06:55:06;8.80;99.90
27413;DHT22;14871;52.702;5.230;2024-03-25T06:57:31;8.80;99.90
27413;DHT22;14871;52.702;5.230;2024-03-25T06:59:57;8.80;99.90
27413;DHT22;14871;52.702;5.230;2024-03-25T07:02:23;8.90;99.90
27413;DHT22;14871;52.702;5.230;2024-03-25T07:04:49;9.00;99.90
27413;DHT22;14871;52.702;5.230;2024-03-25T07:07:14;9.10;99.90
27413;DHT22;14871;52.702;5.230;2024-03-25T07:09:40;9.20;99.90
27413;DHT22;14871;52.702;5.230;2024-03-25T07:12:06;9.20;99.90
27413;DHT22;14871;52.702;5.230;2024-03-25T07:14:32;9.20;99.90
27413;DHT22;14871;52.702;5.230;2024-03-25T07:16:58;9.30;99.90
27413;DHT22;14871;52.702;5.230;2024-03-25T07:19:23;9.40;99.90
27413;DHT22;14871;52.702;5.230;2024-03-25T07:21:49;9.40;99.90
27413;DHT22;14871;52.702;5.230;2024-03-25T07:24:14;9.40;99.90
27413;DHT22;14871;52.702;5.230;2024-03-25T07:26:40;9.50;99.90
27413;DHT22;14871;52.702;5.230;2024-03-25T07:29:06;9.70;99.90
27413;DHT22;14871;52.702;5.230;2024-03-25T07:31:31;9.80;99.90
27413;DHT22;14871;52.702;5.230;2024-03-25T07:33:57;10.00;99.90
27413;DHT22;14871;52.702;5.230;2024-03-25T07:36:23;10.00;99.90
27413;DHT22;14871;52.702;5.230;2024-03-25T07:38:48;10.20;99.90
27413;DHT22;14871;52.702;5.230;2024-03-25T07:41:14;10.30;99.90
27413;DHT22;14871;52.702;5.230;2024-03-25T07:43:39;10.40;99.90
27413;DHT22;14871;52.702;5.230;2024-03-25T07:46:05;10.60;99.90
27413;DHT22;14871;52.702;5.230;2024-03-25T07:48:31;10.50;99.90
27413;DHT22;14871;52.702;5.230;2024-03-25T07:50:56;10.80;99.90
27413;DHT22;14871;52.702;5.230;2024-03-25T07:53:22;10.90;99.90
27413;DHT22;14871;52.702;5.230;2024-03-25T07:55:47;11.00;99.90
27413;DHT22;14871;52.702;5.230;2024-03-25T07:58:13;11.00;99.90
27413;DHT22;14871;52.702;5.230;2024-03-25T08:00:38;11.10;99.90
27413;DHT22;14871;52.702;5.230;2024-03-25T08:03:04;11.20;99.90
27413;DHT22;14871;52.702;5.230;2024-03-25T08:05:30;11.30;99.90
27413;DHT22;14871;52.702;5.230;2024-03-25T08:07:56;11.50;99.90
27413;DHT22;14871;52.702;5.230;2024-03-25T08:10:21;11.80;99.90
27413;DHT22;14871;52.702;5.230;2024-03-25T08:12:47;12.00;99.90
27413;DHT22;14871;52.702;5.230;2024-03-25T08:15:14;12.00;99.90
27413;DHT22;14871;52.702;5.230;2024-03-25T08:17:39;12.10;99.90
27413;DHT22;14871;52.702;5.230;2024-03-25T08:20:05;12.20;99.90
27413;DHT22;14871;52.702;5.230;2024-03-25T08:22:31;12.30;99.90
27413;DHT22;14871;52.702;5.230;2024-03-25T08:24:56;12.40;99.90
27413;DHT22;14871;52.702;5.230;2024-03-25T08:27:22;12.40;99.90
27413;DHT22;14871;52.702;5.230;2024-03-25T08:29:47;12.20;99.90
27413;DHT22;14871;52.702;5.230;2024-03-25T08:32:16;12.30;99.90
27413;DHT22;14871;52.702;5.230;2024-03-25T08:34:42;12.50;99.90
27413;DHT22;14871;52.702;5.230;2024-03-25T08:37:07;12.40;99.90
27413;DHT22;14871;52.702;5.230;2024-03-25T08:39:33;12.60;99.90
27413;DHT22;14871;52.702;5.230;2024-03-25T08:41:58;12.70;99.90
27413;DHT22;14871;52.702;5.230;2024-03-25T08:44:24;12.80;99.90
27413;DHT22;14871;52.702;5.230;2024-03-25T08:46:49;13.10;99.90
27413;DHT22;14871;52.702;5.230;2024-03-25T08:49:15;13.10;99.90
27413;DHT22;14871;52.702;5.230;2024-03-25T08:51:41;13.20;99.90
27413;DHT22;14871;52.702;5.230;2024-03-25T08:54:06;13.30;99.90
27413;DHT22;14871;52.702;5.230;2024-03-25T08:56:32;13.50;99.90
27413;DHT22;14871;52.702;5.230;2024-03-25T08:58:59;13.60;99.90
27413;DHT22;14871;52.702;5.230;2024-03-25T09:01:24;13.60;99.90
27413;DHT22;14871;52.702;5.230;2024-03-25T09:03:51;13.80;99.90
27413;DHT22;14871;52.702;5.230;2024-03-25T09:06:17;14.00;99.90
27413;DHT22;14871;52.702;5.230;2024-03-25T09:08:42;14.30;99.90
27413;DHT22;14871;52.702;5.230;2024-03-25T09:11:26;14.40;99.90
27413;DHT22;14871;52.702;5.230;2024-03-25T09:13:52;14.80;99.90
27413;DHT22;14871;52.702;5.230;2024-03-25T09:16:18;14.50;99.90
27413;DHT22;14871;52.702;5.230;2024-03-25T09:18:44;14.20;99.90
27413;DHT22;14871;52.702;5.230;2024-03-25T09:21:11;14.30;99.90
27413;DHT22;14871;52.702;5.230;2024-03-25T09:23:36;14.10;99.90
27413;DHT22;14871;52.702;5.230;2024-03-25T09:26:02;14.10;99.90
27413;DHT22;14871;52.702;5.230;2024-03-25T09:28:28;14.10;99.90
27413;DHT22;14871;52.702;5.230;2024-03-25T09:30:53;14.10;99.90
27413;DHT22;14871;52.702;5.230;2024-03-25T09:33:19;14.30;99.90
27413;DHT22;14871;52.702;5.230;2024-03-25T09:35:44;14.50;99.90
27413;DHT22;14871;52.702;5.230;2024-03-25T09:38:10;14.80;99.90
27413;DHT22;14871;52.702;5.230;2024-03-25T09:40:42;14.90;99.90
27413;DHT22;14871;52.702;5.230;2024-03-25T09:43:23;15.00;99.90
27413;DHT22;14871;52.702;5.230;2024-03-25T09:45:49;15.20;99.90
27413;DHT22;14871;52.702;5.230;2024-03-25T09:48:19;15.20;99.90
27413;DHT22;14871;52.702;5.230;2024-03-25T09:50:47;15.30;99.90
27413;DHT22;14871;52.702;5.230;2024-03-25T09:53:13;15.50;99.90
27413;DHT22;14871;52.702;5.230;2024-03-25T09:55:39;15.50;99.90
27413;DHT22;14871;52.702;5.230;2024-03-25T09:58:05;15.50;99.90
27413;DHT22;14871;52.702;5.230;2024-03-25T10:00:31;15.30;99.90
27413;DHT22;14871;52.702;5.230;2024-03-25T10:02:56;15.20;99.90
27413;DHT22;14871;52.702;5.230;2024-03-25T10:05:22;15.00;99.90
27413;DHT22;14871;52.702;5.230;2024-03-25T10:07:48;15.00;99.90
27413;DHT22;14871;52.702;5.230;2024-03-25T10:10:13;14.90;99.90
27413;DHT22;14871;52.702;5.230;2024-03-25T10:12:39;14.80;99.90
27413;DHT22;14871;52.702;5.230;2024-03-25T10:15:06;14.90;99.90
27413;DHT22;14871;52.702;5.230;2024-03-25T10:17:32;14.70;99.90
27413;DHT22;14871;52.702;5.230;2024-03-25T10:19:58;14.70;99.90
27413;DHT22;14871;52.702;5.230;2024-03-25T10:22:23;14.80;99.90
27413;DHT22;14871;52.702;5.230;2024-03-25T10:24:49;14.70;99.90
27413;DHT22;14871;52.702;5.230;2024-03-25T10:27:21;14.90;99.90
27413;DHT22;14871;52.702;5.230;2024-03-25T10:29:47;15.10;99.90
27413;DHT22;14871;52.702;5.230;2024-03-25T10:32:14;15.20;99.90
27413;DHT22;14871;52.702;5.230;2024-03-25T10:34:40;15.40;99.90
27413;DHT22;14871;52.702;5.230;2024-03-25T10:37:09;15.50;99.90
27413;DHT22;14871;52.702;5.230;2024-03-25T10:39:59;15.20;99.90
27413;DHT22;14871;52.702;5.230;2024-03-25T10:42:23;15.50;99.90
27413;DHT22;14871;52.702;5.230;2024-03-25T10:44:50;15.90;99.90
27413;DHT22;14871;52.702;5.230;2024-03-25T10:47:20;16.10;99.90
27413;DHT22;14871;52.702;5.230;2024-03-25T10:49:49;16.00;99.90
27413;DHT22;14871;52.702;5.230;2024-03-25T10:52:16;16.00;99.90
27413;DHT22;14871;52.702;5.230;2024-03-25T10:54:43;15.90;99.90
27413;DHT22;14871;52.702;5.230;2024-03-25T10:57:13;15.80;99.90
27413;DHT22;14871;52.702;5.230;2024-03-25T10:59:40;15.70;99.90
27413;DHT22;14871;52.702;5.230;2024-03-25T11:02:10;15.90;99.90
27413;DHT22;14871;52.702;5.230;2024-03-25T11:04:36;16.10;99.90
27413;DHT22;14871;52.702;5.230;2024-03-25T11:07:12;15.70;99.90
27413;DHT22;14871;52.702;5.230;2024-03-25T11:09:39;15.70;99.90
27413;DHT22;14871;52.702;5.230;2024-03-25T11:12:05;15.40;99.90
27413;DHT22;14871;52.702;5.230;2024-03-25T11:14:31;15.40;99.90
27413;DHT22;14871;52.702;5.230;2024-03-25T11:17:01;15.80;99.90
27413;DHT22;14871;52.702;5.230;2024-03-25T11:19:28;15.60;99.90
27413;DHT22;14871;52.702;5.230;2024-03-25T11:22:05;15.50;99.90
27413;DHT22;14871;52.702;5.230;2024-03-25T11:24:31;15.60;99.90
27413;DHT22;14871;52.702;5.230;2024-03-25T11:26:57;15.30;99.90
27413;DHT22;14871;52.702;5.230;2024-03-25T11:29:23;15.40;99.90
27413;DHT22;14871;52.702;5.230;2024-03-25T11:31:52;15.40;99.90
27413;DHT22;14871;52.702;5.230;2024-03-25T11:34:19;15.90;99.90
27413;DHT22;14871;52.702;5.230;2024-03-25T11:36:44;15.40;99.90
27413;DHT22;14871;52.702;5.230;2024-03-25T11:39:11;15.40;99.90
27413;DHT22;14871;52.702;5.230;2024-03-25T11:41:41;15.30;99.90
27413;DHT22;14871;52.702;5.230;2024-03-25T11:44:11;15.60;99.90
27413;DHT22;14871;52.702;5.230;2024-03-25T11:46:38;15.90;99.90
27413;DHT22;14871;52.702;5.230;2024-03-25T11:49:15;16.20;99.90
27413;DHT22;14871;52.702;5.230;2024-03-25T11:51:43;16.10;99.90
27413;DHT22;14871;52.702;5.230;2024-03-25T11:54:10;16.00;99.90
27413;DHT22;14871;52.702;5.230;2024-03-25T11:56:37;16.20;99.90
27413;DHT22;14871;52.702;5.230;2024-03-25T11:59:05;16.10;99.90
27413;DHT22;14871;52.702;5.230;2024-03-25T12:01:32;16.80;99.90
27413;DHT22;14871;52.702;5.230;2024-03-25T12:04:08;17.30;99.70
27413;DHT22;14871;52.702;5.230;2024-03-25T12:06:35;17.20;99.70
27413;DHT22;14871;52.702;5.230;2024-03-25T12:09:00;17.00;97.90
27413;DHT22;14871;52.702;5.230;2024-03-25T12:11:45;17.10;97.70
27413;DHT22;14871;52.702;5.230;2024-03-25T12:14:11;17.40;97.30
27413;DHT22;14871;52.702;5.230;2024-03-25T12:16:37;17.20;95.80
27413;DHT22;14871;52.702;5.230;2024-03-25T12:19:02;17.10;96.70
27413;DHT22;14871;52.702;5.230;2024-03-25T12:21:28;17.50;97.00
27413;DHT22;14871;52.702;5.230;2024-03-25T12:23:54;17.10;95.50
27413;DHT22;14871;52.702;5.230;2024-03-25T12:26:20;17.40;94.90
27413;DHT22;14871;52.702;5.230;2024-03-25T12:28:45;17.40;94.30
27413;DHT22;14871;52.702;5.230;2024-03-25T12:31:11;17.60;94.00
27413;DHT22;14871;52.702;5.230;2024-03-25T12:33:42;17.70;93.50
27413;DHT22;14871;52.702;5.230;2024-03-25T12:36:08;17.40;92.00
27413;DHT22;14871;52.702;5.230;2024-03-25T12:38:34;17.60;93.50
27413;DHT22;14871;52.702;5.230;2024-03-25T12:41:12;17.60;93.40
27413;DHT22;14871;52.702;5.230;2024-03-25T12:43:44;17.80;92.40
27413;DHT22;14871;52.702;5.230;2024-03-25T12:46:11;17.70;91.80
27413;DHT22;14871;52.702;5.230;2024-03-25T12:48:37;17.90;92.40
27413;DHT22;14871;52.702;5.230;2024-03-25T12:51:03;18.10;91.90
27413;DHT22;14871;52.702;5.230;2024-03-25T12:53:29;18.30;91.10
27413;DHT22;14871;52.702;5.230;2024-03-25T12:55:54;18.00;91.10
27413;DHT22;14871;52.702;5.230;2024-03-25T12:58:20;18.20;90.30
27413;DHT22;14871;52.702;5.230;2024-03-25T13:00:46;18.10;90.90
27413;DHT22;14871;52.702;5.230;2024-03-25T13:03:12;17.80;89.30
27413;DHT22;14871;52.702;5.230;2024-03-25T13:05:38;17.90;90.20
27413;DHT22;14871;52.702;5.230;2024-03-25T13:08:04;17.70;90.10
27413;DHT22;14871;52.702;5.230;2024-03-25T13:10:30;17.90;90.90
27413;DHT22;14871;52.702;5.230;2024-03-25T13:12:56;18.20;91.50
27413;DHT22;14871;52.702;5.230;2024-03-25T13:15:22;18.10;90.10
27413;DHT22;14871;52.702;5.230;2024-03-25T13:17:48;18.40;90.20
27413;DHT22;14871;52.702;5.230;2024-03-25T13:20:14;18.70;90.10
27413;DHT22;14871;52.702;5.230;2024-03-25T13:22:40;18.50;89.50
27413;DHT22;14871;52.702;5.230;2024-03-25T13:25:06;18.50;88.90
27413;DHT22;14871;52.702;5.230;2024-03-25T13:27:32;18.70;88.80
27413;DHT22;14871;52.702;5.230;2024-03-25T13:29:58;18.90;86.60
27413;DHT22;14871;52.702;5.230;2024-03-25T13:32:23;18.90;87.10
27413;DHT22;14871;52.702;5.230;2024-03-25T13:34:50;19.00;87.00
27413;DHT22;14871;52.702;5.230;2024-03-25T13:37:15;19.10;86.00
27413;DHT22;14871;52.702;5.230;2024-03-25T13:39:41;19.10;84.80
27413;DHT22;14871;52.702;5.230;2024-03-25T13:42:07;19.00;84.40
27413;DHT22;14871;52.702;5.230;2024-03-25T13:44:32;19.20;85.60
27413;DHT22;14871;52.702;5.230;2024-03-25T13:46:58;19.20;84.00
27413;DHT22;14871;52.702;5.230;2024-03-25T13:49:23;19.10;81.90
27413;DHT22;14871;52.702;5.230;2024-03-25T13:52:07;18.90;80.70
27413;DHT22;14871;52.702;5.230;2024-03-25T13:54:33;18.70;80.20
27413;DHT22;14871;52.702;5.230;2024-03-25T13:56:59;18.50;79.80
27413;DHT22;14871;52.702;5.230;2024-03-25T13:59:25;18.80;80.70
27413;DHT22;14871;52.702;5.230;2024-03-25T14:01:50;18.90;82.20
27413;DHT22;14871;52.702;5.230;2024-03-25T14:04:20;19.20;79.70
27413;DHT22;14871;52.702;5.230;2024-03-25T14:06:45;19.30;79.20
27413;DHT22;14871;52.702;5.230;2024-03-25T14:09:26;19.30;77.80
27413;DHT22;14871;52.702;5.230;2024-03-25T14:11:51;19.50;76.60
27413;DHT22;14871;52.702;5.230;2024-03-25T14:14:17;19.70;75.20
27413;DHT22;14871;52.702;5.230;2024-03-25T14:16:43;19.50;75.00
27413;DHT22;14871;52.702;5.230;2024-03-25T14:19:08;19.60;78.80
27413;DHT22;14871;52.702;5.230;2024-03-25T14:21:34;19.80;77.90
27413;DHT22;14871;52.702;5.230;2024-03-25T14:24:00;19.30;77.30
27413;DHT22;14871;52.702;5.230;2024-03-25T14:26:26;19.20;72.80
27413;DHT22;14871;52.702;5.230;2024-03-25T14:28:51;19.40;76.00
27413;DHT22;14871;52.702;5.230;2024-03-25T14:31:17;19.40;74.60
27413;DHT22;14871;52.702;5.230;2024-03-25T14:33:42;19.50;74.60
27413;DHT22;14871;52.702;5.230;2024-03-25T14:36:08;19.60;71.90
27413;DHT22;14871;52.702;5.230;2024-03-25T14:38:33;19.50;71.50
27413;DHT22;14871;52.702;5.230;2024-03-25T14:41:00;19.40;69.10
27413;DHT22;14871;52.702;5.230;2024-03-25T14:43:25;19.50;69.10
27413;DHT22;14871;52.702;5.230;2024-03-25T14:45:51;19.00;69.70
27413;DHT22;14871;52.702;5.230;2024-03-25T14:48:16;19.00;68.70
27413;DHT22;14871;52.702;5.230;2024-03-25T14:50:42;19.20;72.40
27413;DHT22;14871;52.702;5.230;2024-03-25T14:53:07;19.20;71.90
27413;DHT22;14871;52.702;5.230;2024-03-25T14:55:33;19.00;71.00
27413;DHT22;14871;52.702;5.230;2024-03-25T14:57:59;19.40;73.20
27413;DHT22;14871;52.702;5.230;2024-03-25T15:00:24;19.40;71.90
27413;DHT22;14871;52.702;5.230;2024-03-25T15:02:51;19.20;70.70
27413;DHT22;14871;52.702;5.230;2024-03-25T15:05:16;19.00;72.30
27413;DHT22;14871;52.702;5.230;2024-03-25T15:07:46;19.30;75.00
27413;DHT22;14871;52.702;5.230;2024-03-25T15:10:12;19.50;75.60
27413;DHT22;14871;52.702;5.230;2024-03-25T15:12:40;19.40;74.20
27413;DHT22;14871;52.702;5.230;2024-03-25T15:15:06;19.70;76.00
27413;DHT22;14871;52.702;5.230;2024-03-25T15:17:34;19.90;75.70
27413;DHT22;14871;52.702;5.230;2024-03-25T15:19:59;19.70;71.20
27413;DHT22;14871;52.702;5.230;2024-03-25T15:22:25;19.60;71.00
27413;DHT22;14871;52.702;5.230;2024-03-25T15:24:51;19.50;71.90
27413;DHT22;14871;52.702;5.230;2024-03-25T15:27:16;19.50;72.30
27413;DHT22;14871;52.702;5.230;2024-03-25T15:29:42;19.40;71.80
27413;DHT22;14871;52.702;5.230;2024-03-25T15:32:08;19.30;73.60
27413;DHT22;14871;52.702;5.230;2024-03-25T15:34:33;19.30;74.60
27413;DHT22;14871;52.702;5.230;2024-03-25T15:36:59;19.00;75.10